sensor_id;sensor_type;location;lat;lon;timestamp;pressure;altitude;pressure_sealevel;temperature;humidity
7918;BME280;4004;42.624;23.386;2022-10-16T00:01:14;94781.97;;;9.61;100.00
7918;BME280;4004;42.624;23.386;2022-10-16T00:03:42;94766.97;;;9.47;100.00
7918;BME280;4004;42.624;23.386;2022-10-16T00:06:10;94789.44;;;9.55;100.00
7918;BME280;4004;42.624;23.386;2022-10-16T00:08:37;94786.63;;;9.51;100.00
7918;BME280;4004;42.624;23.386;2022-10-16T00:11:07;94794.59;;;9.48;100.00
7918;BME280;4004;42.624;23.386;2022-10-16T00:13:36;94790.13;;;9.52;100.00
7918;BME280;4004;42.624;23.386;2022-10-16T00:16:03;94788.09;;;9.49;100.00
7918;BME280;4004;42.624;23.386;2022-10-16T00:18:31;94788.75;;;9.46;100.00
7918;BME280;4004;42.624;23.386;2022-10-16T00:21:01;94792.75;;;9.40;100.00
7918;BME280;4004;42.624;23.386;2022-10-16T00:23:29;94794.97;;;9.38;100.00
7918;BME280;4004;42.624;23.386;2022-10-16T00:25:56;94797.56;;;9.34;100.00
7918;BME280;4004;42.624;23.386;2022-10-16T00:28:25;94798.97;;;9.31;100.00
7918;BME280;4004;42.624;23.386;2022-10-16T00:30:52;94799.09;;;9.23;100.00
7918;BME280;4004;42.624;23.386;2022-10-16T00:33:19;94805.22;;;9.23;100.00
7918;BME280;4004;42.624;23.386;2022-10-16T00:35:46;94805.69;;;9.25;100.00
7918;BME280;4004;42.624;23.386;2022-10-16T00:38:13;94799.72;;;9.20;100.00
7918;BME280;4004;42.624;23.386;2022-10-16T00:40:40;94805.56;;;9.22;100.00
7918;BME280;4004;42.624;23.386;2022-10-16T00:43:12;94807.22;;;9.14;100.00
7918;BME280;4004;42.624;23.386;2022-10-16T00:45:41;94809.75;;;9.10;100.00
7918;BME280;4004;42.624;23.386;2022-10-16T00:48:12;94802.63;;;9.15;100.00
7918;BME280;4004;42.624;23.386;2022-10-16T00:50:40;94800.25;;;9.13;100.00
7918;BME280;4004;42.624;23.386;2022-10-16T00:53:10;94800.69;;;9.03;100.00
7918;BME280;4004;42.624;23.386;2022-10-16T00:55:37;94800.06;;;8.97;100.00
7918;BME280;4004;42.624;23.386;2022-10-16T00:58:04;94805.22;;;9.02;100.00
7918;BME280;4004;42.624;23.386;2022-10-16T01:00:31;94802.91;;;9.01;100.00
7918;BME280;4004;42.624;23.386;2022-10-16T01:03:01;94803.81;;;9.05;100.00
7918;BME280;4004;42.624;23.386;2022-10-16T01:05:36;94812.97;;;9.04;100.00
7918;BME280;4004;42.624;23.386;2022-10-16T01:08:10;94818.38;;;8.95;100.00
7918;BME280;4004;42.624;23.386;2022-10-16T01:10:42;94824.34;;;8.80;100.00
7918;BME280;4004;42.624;23.386;2022-10-16T01:13:12;94816.69;;;8.69;100.00
7918;BME280;4004;42.624;23.386;2022-10-16T01:15:47;94824.28;;;8.67;100.00
7918;BME280;4004;42.624;23.386;2022-10-16T01:18:19;94822.47;;;8.50;100.00
7918;BME280;4004;42.624;23.386;2022-10-16T01:20:51;94814.91;;;8.53;100.00
7918;BME280;4004;42.624;23.386;2022-10-16T01:23:36;94817.25;;;8.54;100.00
7918;BME280;4004;42.624;23.386;2022-10-16T01:26:28;94815.09;;;8.39;100.00
7918;BME280;4004;42.624;23.386;2022-10-16T01:29:03;94809.47;;;8.32;100.00
7918;BME280;4004;42.624;23.386;2022-10-16T01:31:33;94801.13;;;8.24;100.00
7918;BME280;4004;42.624;23.386;2022-10-16T01:34:05;94797.94;;;8.01;100.00
7918;BME280;4004;42.624;23.386;2022-10-16T01:36:37;94798.44;;;7.95;100.00
7918;BME280;4004;42.624;23.386;2022-10-16T01:39:08;94801.16;;;7.86;100.00
7918;BME280;4004;42.624;23.386;2022-10-16T01:41:39;94794.53;;;7.92;100.00
7918;BME280;4004;42.624;23.386;2022-10-16T01:44:11;94787.56;;;8.00;100.00
7918;BME280;4004;42.624;23.386;2022-10-16T01:46:43;94803.47;;;8.05;100.00
7918;BME280;4004;42.624;23.386;2022-10-16T01:49:12;94805.22;;;8.01;100.00
7918;BME280;4004;42.624;23.386;2022-10-16T01:51:40;94811.84;;;7.95;100.00
7918;BME280;4004;42.624;23.386;2022-10-16T01:54:09;94811.56;;;7.87;100.00
7918;BME280;4004;42.624;23.386;2022-10-16T01:56:39;94809.69;;;7.79;100.00
7918;BME280;4004;42.624;23.386;2022-10-16T01:59:11;94814.13;;;7.66;100.00
7918;BME280;4004;42.624;23.386;2022-10-16T02:01:40;94801.88;;;7.57;100.00
7918;BME280;4004;42.624;23.386;2022-10-16T02:04:11;94804.56;;;7.57;100.00
7918;BME280;4004;42.624;23.386;2022-10-16T02:06:41;94805.22;;;7.54;100.00
7918;BME280;4004;42.624;23.386;2022-10-16T02:09:08;94811.34;;;7.45;100.00
7918;BME280;4004;42.624;23.386;2022-10-16T02:11:35;94816.53;;;7.42;100.00
7918;BME280;4004;42.624;23.386;2022-10-16T02:14:04;94814.69;;;7.34;100.00
7918;BME280;4004;42.624;23.386;2022-10-16T02:16:37;94826.16;;;7.34;100.00
7918;BME280;4004;42.624;23.386;2022-10-16T02:19:05;94822.84;;;7.29;100.00
7918;BME280;4004;42.624;23.386;2022-10-16T02:21:38;94824.28;;;7.26;100.00
7918;BME280;4004;42.624;23.386;2022-10-16T02:24:10;94831.69;;;7.20;100.00
7918;BME280;4004;42.624;23.386;2022-10-16T02:26:43;94824.75;;;7.11;100.00
7918;BME280;4004;42.624;23.386;2022-10-16T02:29:15;94810.59;;;6.93;100.00
7918;BME280;4004;42.624;23.386;2022-10-16T02:31:47;94838.28;;;6.97;100.00
7918;BME280;4004;42.624;23.386;2022-10-16T02:34:18;94830.25;;;6.88;100.00
7918;BME280;4004;42.624;23.386;2022-10-16T02:36:47;94834.66;;;6.84;100.00
7918;BME280;4004;42.624;23.386;2022-10-16T02:39:15;94833.69;;;6.71;100.00
7918;BME280;4004;42.624;23.386;2022-10-16T02:41:43;94830.88;;;6.68;100.00
7918;BME280;4004;42.624;23.386;2022-10-16T02:44:10;94832.91;;;6.62;100.00
7918;BME280;4004;42.624;23.386;2022-10-16T02:46:36;94841.25;;;6.60;100.00
7918;BME280;4004;42.624;23.386;2022-10-16T02:49:05;94841.06;;;6.57;100.00
7918;BME280;4004;42.624;23.386;2022-10-16T02:51:31;94835.72;;;6.57;100.00
7918;BME280;4004;42.624;23.386;2022-10-16T02:53:58;94842.97;;;6.56;100.00
7918;BME280;4004;42.624;23.386;2022-10-16T02:56:25;94845.44;;;6.53;100.00
7918;BME280;4004;42.624;23.386;2022-10-16T02:58:52;94841.53;;;6.50;100.00
7918;BME280;4004;42.624;23.386;2022-10-16T03:01:18;94852.66;;;6.43;100.00
7918;BME280;4004;42.624;23.386;2022-10-16T03:03:45;94855.50;;;6.38;100.00
7918;BME280;4004;42.624;23.386;2022-10-16T03:06:13;94852.94;;;6.33;100.00
7918;BME280;4004;42.624;23.386;2022-10-16T03:08:40;94862.69;;;6.38;100.00
7918;BME280;4004;42.624;23.386;2022-10-16T03:11:07;94844.47;;;6.40;100.00
7918;BME280;4004;42.624;23.386;2022-10-16T03:13:34;94852.03;;;6.47;100.00
7918;BME280;4004;42.624;23.386;2022-10-16T03:16:00;94858.78;;;6.44;100.00
7918;BME280;4004;42.624;23.386;2022-10-16T03:18:27;94870.44;;;6.48;100.00
7918;BME280;4004;42.624;23.386;2022-10-16T03:20:54;94861.59;;;6.39;100.00
7918;BME280;4004;42.624;23.386;2022-10-16T03:23:22;94866.00;;;6.35;100.00
7918;BME280;4004;42.624;23.386;2022-10-16T03:25:49;94865.03;;;6.31;100.00
7918;BME280;4004;42.624;23.386;2022-10-16T03:28:15;94876.03;;;6.38;100.00
7918;BME280;4004;42.624;23.386;2022-10-16T03:30:43;94873.66;;;6.28;100.00
7918;BME280;4004;42.624;23.386;2022-10-16T03:33:09;94868.03;;;6.29;100.00
7918;BME280;4004;42.624;23.386;2022-10-16T03:35:36;94869.94;;;6.46;100.00
7918;BME280;4004;42.624;23.386;2022-10-16T03:38:03;94876.38;;;6.36;100.00
7918;BME280;4004;42.624;23.386;2022-10-16T03:40:31;94874.00;;;6.35;100.00
7918;BME280;4004;42.624;23.386;2022-10-16T03:42:58;94870.25;;;6.44;100.00
7918;BME280;4004;42.624;23.386;2022-10-16T03:45:25;94864.13;;;6.44;100.00
7918;BME280;4004;42.624;23.386;2022-10-16T03:47:52;94861.78;;;6.51;100.00
7918;BME280;4004;42.624;23.386;2022-10-16T03:50:19;94865.88;;;6.49;100.00
7918;BME280;4004;42.624;23.386;2022-10-16T03:52:46;94863.53;;;6.47;100.00
7918;BME280;4004;42.624;23.386;2022-10-16T03:55:13;94869.19;;;6.54;100.00
7918;BME280;4004;42.624;23.386;2022-10-16T03:57:41;94865.13;;;6.66;100.00
7918;BME280;4004;42.624;23.386;2022-10-16T04:00:09;94808.31;;;6.25;100.00
7918;BME280;4004;42.624;23.386;2022-10-16T04:02:36;94858.66;;;6.49;100.00
7918;BME280;4004;42.624;23.386;2022-10-16T04:05:03;94860.41;;;6.62;100.00
7918;BME280;4004;42.624;23.386;2022-10-16T04:07:30;94859.78;;;6.66;100.00
7918;BME280;4004;42.624;23.386;2022-10-16T04:09:57;94868.41;;;6.62;100.00
7918;BME280;4004;42.624;23.386;2022-10-16T04:12:24;94866.38;;;6.59;100.00
7918;BME280;4004;42.624;23.386;2022-10-16T04:14:52;94861.00;;;6.51;100.00
7918;BME280;4004;42.624;23.386;2022-10-16T04:17:19;94857.72;;;6.45;100.00
7918;BME280;4004;42.624;23.386;2022-10-16T04:19:46;94864.91;;;6.44;100.00
7918;BME280;4004;42.624;23.386;2022-10-16T04:22:12;94861.13;;;6.37;100.00
7918;BME280;4004;42.624;23.386;2022-10-16T04:24:40;94857.81;;;6.40;100.00
7918;BME280;4004;42.624;23.386;2022-10-16T04:27:06;94856.75;;;6.41;100.00
7918;BME280;4004;42.624;23.386;2022-10-16T04:29:33;94863.47;;;6.30;100.00
7918;BME280;4004;42.624;23.386;2022-10-16T04:32:01;94860.31;;;6.28;100.00
7918;BME280;4004;42.624;23.386;2022-10-16T04:34:28;94861.75;;;6.34;100.00
7918;BME280;4004;42.624;23.386;2022-10-16T04:36:55;94863.00;;;6.28;100.00
7918;BME280;4004;42.624;23.386;2022-10-16T04:39:21;94869.75;;;6.25;100.00
7918;BME280;4004;42.624;23.386;2022-10-16T04:41:48;94868.47;;;6.22;100.00
7918;BME280;4004;42.624;23.386;2022-10-16T04:44:15;94875.38;;;6.23;100.00
7918;BME280;4004;42.624;23.386;2022-10-16T04:46:42;94870.19;;;6.18;100.00
7918;BME280;4004;42.624;23.386;2022-10-16T04:49:11;94885.75;;;6.25;100.00
7918;BME280;4004;42.624;23.386;2022-10-16T04:51:37;94890.94;;;6.30;100.00
7918;BME280;4004;42.624;23.386;2022-10-16T04:54:04;94892.84;;;6.30;100.00
7918;BME280;4004;42.624;23.386;2022-10-16T04:56:31;94896.19;;;6.44;100.00
7918;BME280;4004;42.624;23.386;2022-10-16T04:58:58;94893.38;;;6.58;100.00
7918;BME280;4004;42.624;23.386;2022-10-16T05:01:24;94899.09;;;6.74;100.00
7918;BME280;4004;42.624;23.386;2022-10-16T05:03:51;94897.38;;;6.87;100.00
7918;BME280;4004;42.624;23.386;2022-10-16T05:06:19;94894.44;;;7.05;100.00
7918;BME280;4004;42.624;23.386;2022-10-16T05:08:46;94901.69;;;7.14;100.00
7918;BME280;4004;42.624;23.386;2022-10-16T05:11:13;94900.88;;;7.31;100.00
7918;BME280;4004;42.624;23.386;2022-10-16T05:13:40;94908.28;;;7.51;100.00
7918;BME280;4004;42.624;23.386;2022-10-16T05:16:06;94914.56;;;7.81;100.00
7918;BME280;4004;42.624;23.386;2022-10-16T05:18:33;94924.59;;;8.02;100.00
7918;BME280;4004;42.624;23.386;2022-10-16T05:21:00;94919.22;;;8.02;100.00
7918;BME280;4004;42.624;23.386;2022-10-16T05:23:28;94922.06;;;8.14;100.00
7918;BME280;4004;42.624;23.386;2022-10-16T05:25:56;94923.13;;;8.22;100.00
7918;BME280;4004;42.624;23.386;2022-10-16T05:28:23;94923.56;;;8.33;100.00
7918;BME280;4004;42.624;23.386;2022-10-16T05:30:50;94922.56;;;8.55;100.00
7918;BME280;4004;42.624;23.386;2022-10-16T05:33:19;94906.63;;;8.58;100.00
7918;BME280;4004;42.624;23.386;2022-10-16T05:35:47;94926.22;;;8.80;100.00
7918;BME280;4004;42.624;23.386;2022-10-16T05:38:15;94937.78;;;9.01;100.00
7918;BME280;4004;42.624;23.386;2022-10-16T05:40:43;94928.41;;;9.16;100.00
7918;BME280;4004;42.624;23.386;2022-10-16T05:43:16;94937.94;;;9.26;100.00
7918;BME280;4004;42.624;23.386;2022-10-16T05:45:43;94934.34;;;9.22;100.00
7918;BME280;4004;42.624;23.386;2022-10-16T05:48:10;94932.47;;;9.43;100.00
7918;BME280;4004;42.624;23.386;2022-10-16T05:50:36;94941.59;;;9.42;100.00
7918;BME280;4004;42.624;23.386;2022-10-16T05:53:03;94942.53;;;9.25;100.00
7918;BME280;4004;42.624;23.386;2022-10-16T05:55:30;94948.34;;;9.27;100.00
7918;BME280;4004;42.624;23.386;2022-10-16T05:57:58;94939.91;;;9.38;100.00
7918;BME280;4004;42.624;23.386;2022-10-16T06:00:25;94951.13;;;9.61;100.00
7918;BME280;4004;42.624;23.386;2022-10-16T06:02:51;94956.31;;;9.78;100.00
7918;BME280;4004;42.624;23.386;2022-10-16T06:05:18;94964.50;;;9.82;100.00
7918;BME280;4004;42.624;23.386;2022-10-16T06:07:45;94958.81;;;9.83;100.00
7918;BME280;4004;42.624;23.386;2022-10-16T06:10:12;94964.69;;;9.98;100.00
7918;BME280;4004;42.624;23.386;2022-10-16T06:12:38;94959.91;;;10.03;99.85
7918;BME280;4004;42.624;23.386;2022-10-16T06:15:07;94969.59;;;10.16;99.87
7918;BME280;4004;42.624;23.386;2022-10-16T06:17:34;94975.28;;;10.48;98.53
7918;BME280;4004;42.624;23.386;2022-10-16T06:20:01;94982.47;;;10.69;97.34
7918;BME280;4004;42.624;23.386;2022-10-16T06:22:28;94980.06;;;11.25;95.03
7918;BME280;4004;42.624;23.386;2022-10-16T06:24:54;94986.63;;;11.40;91.43
7918;BME280;4004;42.624;23.386;2022-10-16T06:27:21;94990.00;;;11.37;90.72
7918;BME280;4004;42.624;23.386;2022-10-16T06:29:48;95002.34;;;11.38;90.19
7918;BME280;4004;42.624;23.386;2022-10-16T06:32:16;95002.81;;;11.15;90.10
7918;BME280;4004;42.624;23.386;2022-10-16T06:34:43;94995.94;;;10.93;91.50
7918;BME280;4004;42.624;23.386;2022-10-16T06:37:10;94995.63;;;10.95;92.52
7918;BME280;4004;42.624;23.386;2022-10-16T06:39:37;95004.03;;;11.06;92.14
7918;BME280;4004;42.624;23.386;2022-10-16T06:42:04;95007.06;;;11.04;92.62
7918;BME280;4004;42.624;23.386;2022-10-16T06:44:31;95013.59;;;11.03;92.65
7918;BME280;4004;42.624;23.386;2022-10-16T06:46:57;95005.16;;;11.17;92.38
7918;BME280;4004;42.624;23.386;2022-10-16T06:49:25;95014.94;;;11.34;92.62
7918;BME280;4004;42.624;23.386;2022-10-16T06:51:53;95012.16;;;11.71;90.15
7918;BME280;4004;42.624;23.386;2022-10-16T06:54:20;95019.53;;;11.86;90.37
7918;BME280;4004;42.624;23.386;2022-10-16T06:56:47;95018.81;;;12.14;87.96
7918;BME280;4004;42.624;23.386;2022-10-16T06:59:14;95012.19;;;12.39;86.48
7918;BME280;4004;42.624;23.386;2022-10-16T07:01:40;95027.22;;;12.69;84.99
7918;BME280;4004;42.624;23.386;2022-10-16T07:04:07;95022.59;;;12.69;84.76
7918;BME280;4004;42.624;23.386;2022-10-16T07:06:35;95027.66;;;13.18;83.03
7918;BME280;4004;42.624;23.386;2022-10-16T07:09:07;95027.41;;;13.55;79.24
7918;BME280;4004;42.624;23.386;2022-10-16T07:11:36;95034.38;;;13.92;77.87
7918;BME280;4004;42.624;23.386;2022-10-16T07:14:04;95026.06;;;13.81;76.01
7918;BME280;4004;42.624;23.386;2022-10-16T07:16:32;95034.63;;;14.22;74.56
7918;BME280;4004;42.624;23.386;2022-10-16T07:19:01;95038.19;;;14.45;72.47
7918;BME280;4004;42.624;23.386;2022-10-16T07:21:30;95036.06;;;14.55;70.26
7918;BME280;4004;42.624;23.386;2022-10-16T07:24:02;95036.41;;;14.96;68.42
7918;BME280;4004;42.624;23.386;2022-10-16T07:26:32;95040.94;;;15.34;66.50
7918;BME280;4004;42.624;23.386;2022-10-16T07:28:59;95046.25;;;15.53;63.18
7918;BME280;4004;42.624;23.386;2022-10-16T07:31:26;95039.13;;;15.68;62.05
7918;BME280;4004;42.624;23.386;2022-10-16T07:33:53;95040.66;;;15.43;62.20
7918;BME280;4004;42.624;23.386;2022-10-16T07:36:21;95040.16;;;15.60;61.54
7918;BME280;4004;42.624;23.386;2022-10-16T07:38:48;95053.31;;;15.85;59.68
7918;BME280;4004;42.624;23.386;2022-10-16T07:41:18;95054.97;;;15.66;60.39
7918;BME280;4004;42.624;23.386;2022-10-16T07:43:46;95046.63;;;15.29;62.40
7918;BME280;4004;42.624;23.386;2022-10-16T07:46:13;95044.06;;;15.13;62.91
7918;BME280;4004;42.624;23.386;2022-10-16T07:48:40;95047.28;;;15.22;63.81
7918;BME280;4004;42.624;23.386;2022-10-16T07:51:11;95051.94;;;15.22;62.61
7918;BME280;4004;42.624;23.386;2022-10-16T07:53:38;95042.94;;;15.14;63.89
7918;BME280;4004;42.624;23.386;2022-10-16T07:56:06;95049.34;;;15.29;63.81
7918;BME280;4004;42.624;23.386;2022-10-16T07:58:35;95046.81;;;15.66;62.11
7918;BME280;4004;42.624;23.386;2022-10-16T08:01:04;95056.16;;;15.92;60.09
7918;BME280;4004;42.624;23.386;2022-10-16T08:03:31;95058.38;;;15.86;59.12
7918;BME280;4004;42.624;23.386;2022-10-16T08:05:59;95059.66;;;15.69;58.67
7918;BME280;4004;42.624;23.386;2022-10-16T08:08:27;95060.31;;;15.63;59.39
7918;BME280;4004;42.624;23.386;2022-10-16T08:10:54;95061.22;;;15.70;58.79
7918;BME280;4004;42.624;23.386;2022-10-16T08:13:21;95055.50;;;15.75;58.60
7918;BME280;4004;42.624;23.386;2022-10-16T08:15:49;95058.00;;;15.61;59.52
7918;BME280;4004;42.624;23.386;2022-10-16T08:18:16;95054.19;;;15.43;59.58
7918;BME280;4004;42.624;23.386;2022-10-16T08:20:43;95053.75;;;15.37;58.22
7918;BME280;4004;42.624;23.386;2022-10-16T08:23:10;95048.16;;;15.26;59.47
7918;BME280;4004;42.624;23.386;2022-10-16T08:25:38;95054.47;;;15.11;60.98
7918;BME280;4004;42.624;23.386;2022-10-16T08:28:06;95045.50;;;15.07;61.91
7918;BME280;4004;42.624;23.386;2022-10-16T08:30:34;95054.16;;;15.16;60.82
7918;BME280;4004;42.624;23.386;2022-10-16T08:33:02;95051.50;;;15.20;60.48
7918;BME280;4004;42.624;23.386;2022-10-16T08:35:29;95043.47;;;15.23;60.12
7918;BME280;4004;42.624;23.386;2022-10-16T08:37:56;95046.22;;;15.27;59.99
7918;BME280;4004;42.624;23.386;2022-10-16T08:40:24;95049.88;;;15.38;60.14
7918;BME280;4004;42.624;23.386;2022-10-16T08:43:12;95050.94;;;15.57;59.46
7918;BME280;4004;42.624;23.386;2022-10-16T08:45:57;95050.25;;;15.37;56.61
7918;BME280;4004;42.624;23.386;2022-10-16T08:48:37;95052.06;;;15.29;55.92
7918;BME280;4004;42.624;23.386;2022-10-16T08:51:11;95051.44;;;15.39;56.46
7918;BME280;4004;42.624;23.386;2022-10-16T08:53:45;95056.56;;;15.44;55.96
7918;BME280;4004;42.624;23.386;2022-10-16T08:56:13;95064.50;;;15.57;55.59
7918;BME280;4004;42.624;23.386;2022-10-16T08:58:39;95070.16;;;15.71;50.65
7918;BME280;4004;42.624;23.386;2022-10-16T09:01:12;95060.38;;;15.66;52.79
7918;BME280;4004;42.624;23.386;2022-10-16T09:03:54;95055.22;;;15.58;53.65
7918;BME280;4004;42.624;23.386;2022-10-16T09:06:37;95064.00;;;15.51;53.08
7918;BME280;4004;42.624;23.386;2022-10-16T09:12:01;95050.97;;;15.33;51.12
7918;BME280;4004;42.624;23.386;2022-10-16T09:14:38;95049.16;;;15.18;51.36
7918;BME280;4004;42.624;23.386;2022-10-16T09:17:19;95057.00;;;15.23;50.63
7918;BME280;4004;42.624;23.386;2022-10-16T09:19:54;95053.69;;;15.10;51.17
7918;BME280;4004;42.624;23.386;2022-10-16T09:22:27;95047.50;;;15.10;52.10
7918;BME280;4004;42.624;23.386;2022-10-16T09:24:55;95046.41;;;15.15;52.51
7918;BME280;4004;42.624;23.386;2022-10-16T09:27:26;95043.88;;;15.25;51.78
7918;BME280;4004;42.624;23.386;2022-10-16T09:29:53;95057.53;;;15.09;52.63
7918;BME280;4004;42.624;23.386;2022-10-16T09:32:21;95055.84;;;15.01;51.43
7918;BME280;4004;42.624;23.386;2022-10-16T09:34:52;95051.06;;;15.14;51.14
7918;BME280;4004;42.624;23.386;2022-10-16T09:37:21;95047.00;;;15.04;52.32
7918;BME280;4004;42.624;23.386;2022-10-16T09:39:50;95050.63;;;15.12;51.41
7918;BME280;4004;42.624;23.386;2022-10-16T09:42:18;95042.84;;;15.10;50.95
7918;BME280;4004;42.624;23.386;2022-10-16T09:44:50;95048.38;;;14.95;52.70
7918;BME280;4004;42.624;23.386;2022-10-16T09:47:21;95042.91;;;14.91;52.11
7918;BME280;4004;42.624;23.386;2022-10-16T09:49:55;95036.47;;;14.99;51.12
7918;BME280;4004;42.624;23.386;2022-10-16T09:52:23;95036.94;;;15.05;51.24
7918;BME280;4004;42.624;23.386;2022-10-16T09:54:52;95033.03;;;15.02;51.90
7918;BME280;4004;42.624;23.386;2022-10-16T09:57:19;95040.22;;;15.14;51.08
7918;BME280;4004;42.624;23.386;2022-10-16T09:59:49;95038.56;;;15.09;51.55
7918;BME280;4004;42.624;23.386;2022-10-16T10:02:18;95031.94;;;15.07;51.32
7918;BME280;4004;42.624;23.386;2022-10-16T10:04:49;95029.13;;;15.00;52.05
7918;BME280;4004;42.624;23.386;2022-10-16T10:07:24;95028.16;;;14.88;52.08
7918;BME280;4004;42.624;23.386;2022-10-16T10:09:52;95011.38;;;14.79;53.15
7918;BME280;4004;42.624;23.386;2022-10-16T10:12:21;95018.22;;;14.96;52.46
7918;BME280;4004;42.624;23.386;2022-10-16T10:14:50;95020.94;;;14.96;52.47
7918;BME280;4004;42.624;23.386;2022-10-16T10:17:19;95013.63;;;14.97;53.16
7918;BME280;4004;42.624;23.386;2022-10-16T10:19:49;95027.19;;;15.00;53.08
7918;BME280;4004;42.624;23.386;2022-10-16T10:22:27;95018.66;;;14.98;53.35
7918;BME280;4004;42.624;23.386;2022-10-16T10:25:18;95017.38;;;15.15;52.29
7918;BME280;4004;42.624;23.386;2022-10-16T10:28:07;95013.53;;;15.16;52.02
7918;BME280;4004;42.624;23.386;2022-10-16T10:30:41;95027.13;;;15.20;52.22
7918;BME280;4004;42.624;23.386;2022-10-16T10:33:20;95018.94;;;15.16;50.91
7918;BME280;4004;42.624;23.386;2022-10-16T10:35:56;95010.81;;;15.16;52.08
7918;BME280;4004;42.624;23.386;2022-10-16T10:38:40;95011.66;;;15.20;51.34
7918;BME280;4004;42.624;23.386;2022-10-16T10:41:27;95002.50;;;15.28;50.68
7918;BME280;4004;42.624;23.386;2022-10-16T10:44:03;95000.13;;;15.23;50.45
7918;BME280;4004;42.624;23.386;2022-10-16T10:46:34;95000.41;;;15.18;50.58
7918;BME280;4004;42.624;23.386;2022-10-16T10:49:14;95000.97;;;15.27;50.49
7918;BME280;4004;42.624;23.386;2022-10-16T10:51:53;94990.25;;;15.38;50.34
7918;BME280;4004;42.624;23.386;2022-10-16T10:54:29;94999.81;;;15.55;48.80
7918;BME280;4004;42.624;23.386;2022-10-16T10:57:02;95004.22;;;15.67;47.91
7918;BME280;4004;42.624;23.386;2022-10-16T10:59:51;94987.81;;;15.56;47.27
7918;BME280;4004;42.624;23.386;2022-10-16T11:02:23;94989.75;;;15.55;47.24
7918;BME280;4004;42.624;23.386;2022-10-16T11:07:48;94981.72;;;15.63;47.19
7918;BME280;4004;42.624;23.386;2022-10-16T11:10:21;94978.50;;;15.80;47.06
7918;BME280;4004;42.624;23.386;2022-10-16T11:12:53;94979.38;;;15.88;45.63
7918;BME280;4004;42.624;23.386;2022-10-16T11:15:25;94983.63;;;15.89;44.88
7918;BME280;4004;42.624;23.386;2022-10-16T11:18:00;94977.66;;;15.76;43.80
7918;BME280;4004;42.624;23.386;2022-10-16T11:20:32;94972.34;;;15.83;43.71
7918;BME280;4004;42.624;23.386;2022-10-16T11:23:06;94968.41;;;15.81;42.25
7918;BME280;4004;42.624;23.386;2022-10-16T11:25:35;94967.72;;;15.87;42.69
7918;BME280;4004;42.624;23.386;2022-10-16T11:28:07;94966.31;;;15.97;42.59
7918;BME280;4004;42.624;23.386;2022-10-16T11:30:40;94964.75;;;15.96;43.02
7918;BME280;4004;42.624;23.386;2022-10-16T11:33:23;94958.22;;;16.01;41.15
7918;BME280;4004;42.624;23.386;2022-10-16T11:35:55;94961.63;;;15.94;41.88
7918;BME280;4004;42.624;23.386;2022-10-16T11:38:30;94960.56;;;16.02;42.62
7918;BME280;4004;42.624;23.386;2022-10-16T11:41:08;94960.56;;;16.02;42.24
7918;BME280;4004;42.624;23.386;2022-10-16T11:43:38;94966.81;;;16.06;43.63
7918;BME280;4004;42.624;23.386;2022-10-16T11:46:12;94975.44;;;16.15;42.33
7918;BME280;4004;42.624;23.386;2022-10-16T11:48:42;94961.16;;;16.19;41.23
7918;BME280;4004;42.624;23.386;2022-10-16T11:51:16;94958.03;;;16.16;42.00
7918;BME280;4004;42.624;23.386;2022-10-16T11:53:50;94962.75;;;16.23;42.29
7918;BME280;4004;42.624;23.386;2022-10-16T11:56:21;94973.69;;;16.30;41.78
7918;BME280;4004;42.624;23.386;2022-10-16T11:58:55;94965.53;;;16.30;41.11
7918;BME280;4004;42.624;23.386;2022-10-16T12:01:28;94962.06;;;16.30;42.02
7918;BME280;4004;42.624;23.386;2022-10-16T12:04:05;94968.25;;;16.30;41.73
7918;BME280;4004;42.624;23.386;2022-10-16T12:06:42;94960.47;;;16.29;41.75
7918;BME280;4004;42.624;23.386;2022-10-16T12:09:16;94961.72;;;16.35;39.97
7918;BME280;4004;42.624;23.386;2022-10-16T12:11:48;94966.69;;;16.29;39.17
7918;BME280;4004;42.624;23.386;2022-10-16T12:14:33;94964.44;;;16.35;38.25
7918;BME280;4004;42.624;23.386;2022-10-16T12:17:03;94967.97;;;16.39;41.05
7918;BME280;4004;42.624;23.386;2022-10-16T12:19:32;94956.81;;;16.48;41.73
7918;BME280;4004;42.624;23.386;2022-10-16T12:22:00;94958.66;;;16.40;41.76
7918;BME280;4004;42.624;23.386;2022-10-16T12:24:34;94966.09;;;16.47;41.96
7918;BME280;4004;42.624;23.386;2022-10-16T12:27:05;94951.75;;;16.46;42.04
7918;BME280;4004;42.624;23.386;2022-10-16T12:29:36;94950.28;;;16.52;40.93
7918;BME280;4004;42.624;23.386;2022-10-16T12:32:05;94958.88;;;16.62;41.66
7918;BME280;4004;42.624;23.386;2022-10-16T12:34:44;94963.91;;;16.60;40.91
7918;BME280;4004;42.624;23.386;2022-10-16T12:37:14;94957.31;;;16.61;42.29
7918;BME280;4004;42.624;23.386;2022-10-16T12:39:45;94956.22;;;16.69;42.83
7918;BME280;4004;42.624;23.386;2022-10-16T12:42:32;94968.66;;;16.70;41.62
7918;BME280;4004;42.624;23.386;2022-10-16T12:45:00;94962.06;;;16.71;41.41
7918;BME280;4004;42.624;23.386;2022-10-16T12:47:46;94956.94;;;16.62;41.29
7918;BME280;4004;42.624;23.386;2022-10-16T12:50:25;94963.25;;;16.70;40.90
7918;BME280;4004;42.624;23.386;2022-10-16T12:52:52;94964.72;;;16.64;41.16
7918;BME280;4004;42.624;23.386;2022-10-16T12:55:21;94963.56;;;16.65;41.35
7918;BME280;4004;42.624;23.386;2022-10-16T12:58:11;94970.56;;;16.66;41.29
7918;BME280;4004;42.624;23.386;2022-10-16T13:00:44;94974.41;;;16.65;41.74
7918;BME280;4004;42.624;23.386;2022-10-16T13:03:43;94979.56;;;16.73;40.96
7918;BME280;4004;42.624;23.386;2022-10-16T13:06:30;94981.03;;;16.67;41.22
7918;BME280;4004;42.624;23.386;2022-10-16T13:09:12;94977.59;;;16.70;40.58
7918;BME280;4004;42.624;23.386;2022-10-16T13:11:54;94977.34;;;16.83;40.74
7918;BME280;4004;42.624;23.386;2022-10-16T13:14:35;94978.88;;;16.80;41.79
7918;BME280;4004;42.624;23.386;2022-10-16T13:17:10;94980.47;;;16.85;41.93
7918;BME280;4004;42.624;23.386;2022-10-16T13:19:46;94975.41;;;16.83;39.06
7918;BME280;4004;42.624;23.386;2022-10-16T13:22:21;94977.00;;;16.88;41.90
7918;BME280;4004;42.624;23.386;2022-10-16T13:25:02;94979.72;;;16.88;42.82
7918;BME280;4004;42.624;23.386;2022-10-16T13:27:40;94971.91;;;16.83;43.01
7918;BME280;4004;42.624;23.386;2022-10-16T13:30:16;94974.56;;;16.79;43.02
7918;BME280;4004;42.624;23.386;2022-10-16T13:32:45;94975.06;;;16.88;42.22